Hlavní strana
METAR-TAF:

METAR-TAF

Letiště :

Mezinárodní letiště Kapské Město

Kapské Město, Jihoafrická republika

zeměpisná šířka: 33-59S, zeměpisná délka: 018-36E, výška: 42 m

Aktuální stav počasí

Zpráva byla vytvořena před 1 hodinou a 8 minutami, v 03:00 UTC
Jižní vítr 11 kt
Teplota 13°C
Vlhkost vzduchu 62%
Tlak 1015 hPa
Viditelnost 10 km a více
Skoro jasno ve výšce 4000 ft

METAR: FACT 180300Z 17011KT 9999 FEW040 13/06 Q1015 NOSIG

Čas: 06:08 (04:08 UTC)

Předpověď počasí

Zpráva byla vytvořena před 6 hodinami a 8 minutami, v 22:00 UTC
Předpověď platná od 18 v 00 UTC do 19 v 06 UTC
Jižní vítr 15 kt
Viditelnost 10 km a více
Skoro jasno ve výšce 4000 ft

TAF: FACT 172200Z 1800/1906 17015KT 9999 FEW040 TX20/1812Z TN12/1804Z

Stav a předpovědi počasí z více než 4 000 letišť (zprávy METAR a TAF).

Červené a žluté tečky na mapě představují dostupné meteorologické stanice.

Když kurzor umístíte na tečku, zobrazí se název stanice.

Pak kliknutím zobrazíte stav a předpověď počasí.

Chcete-li změnit mapu, kliknutím na zelené tlačítko se znaménkem +mapu přiblížíte, kliknutím na zelené tlačítko se znaménkem – mapu oddálíte a kliknutím na zelené šipky přejdete na sousední mapy.


METAR-TAF: